Startpagina
METAR-TAF:

METAR-TAF

Vliegvelden :

London Heathrow Airport

Londen-Heathrow, Engeland

breedte: 51-29N, lengte: 000-27W, hoogte: 24 m

Actueel weer

Dit bericht is 17 minuten geleden gemaakt, om 20:50 UTC
Wind 7 kt uit het noordoosten
Temperatuur 14°C
Vochtigheid 72%
Druk 1020 hPa
Zicht 10 km of meer

METAR: EGLL 222050Z AUTO 04007KT 9999 NCD 14/09 Q1020

Tijdstip: 22:07 (21:07 UTC)

Verwachting

Dit bericht is 4 uur en het 2 minuten geleden gemaakt, om 17:05 UTC
Verwachting geldig van 22 om 18 UTC tot 23 om 24 UTC
Wind 10 kt uit het noordnoordoosten
Zicht 10 km of meer
Weinig wolken op 4500 ft
Tijdelijke
van 22 om 22 UTC tot 23 om 08 UTC
Zicht: 7000 m
Gebroken wolken op 900 ft
Kans 30% :
Tijdelijke
van 23 om 14 UTC tot 23 om 19 UTC
Zicht: 6000 m
regenbuien
Kans 30% :
Tijdelijke
van 23 om 19 UTC tot 23 om 24 UTC
Zicht: 8000 m
lichte regenbuien

TAF: EGLL 221705Z 2218/2324 02010KT 9999 FEW045 TEMPO 2222/2308 7000 BKN009 PROB30 TEMPO 2314/2319 6000 SHRA PROB30 TEMPO 2319/2324 8000 -SHRA

Waarnemingen en weersverwachtingen van meer dan 4000 vliegvelden (METAR en TAF).

De beschikbare stations zijn de gele en rode punten op de kaart.

Ga met uw muis naar het station om de naam te zien.

Klik dan om waarnemingen en weersverwachtingen te zien.

kaart wijzigen: klik op de groene knoppen met een zwart kruis om in te zoomen, op de groene knop met een streepje om uit te zoomen of op de groene pijlen voor aangrenzende kaarten.


METAR-TAF: